Time;durP1;ratioP1;P1;durP2;ratioP2;P2;SDS_P1;SDS_P2;PMS_P1;PMS_P2;Temp;Humidity;BMP_temperature;BMP_pressure;BME280_temperature;BME280_humidity;BME280_pressure;Samples;Min_cycle;Max_cycle;Signal;HPM_P1;HPM_P2
2021/10/04 00:01:59;;;;;;;0.20;0.20;;;;;;;0.30;52.15;100403.56;5035284;28;20087;-64
2021/10/04 00:04:25;;;;;;;0.20;0.20;;;;;;;0.37;52.05;100403.03;5035295;28;20103;-65
2021/10/04 00:06:50;;;;;;;0.22;0.22;;;;;;;0.33;52.10;100397.06;5035580;28;20045;-64
2021/10/04 00:09:16;;;;;;;0.20;0.20;;;;;;;0.29;52.20;100412.66;5035251;28;20049;-65
2021/10/04 00:11:42;;;;;;;0.20;0.20;;;;;;;0.25;52.25;100408.50;5035364;28;20041;-64
2021/10/04 00:14:08;;;;;;;0.20;0.20;;;;;;;0.22;52.23;100414.19;5035337;28;20045;-64
2021/10/04 00:16:36;;;;;;;0.22;0.22;;;;;;;0.26;52.31;100402.09;5035071;28;20045;-64
2021/10/04 00:19:02;;;;;;;0.20;0.20;;;;;;;0.32;52.01;100400.72;5034969;28;20054;-64
2021/10/04 00:21:28;;;;;;;0.20;0.20;;;;;;;0.34;52.02;100412.28;5034716;28;20048;-64
2021/10/04 00:23:54;;;;;;;0.20;0.20;;;;;;;0.28;52.16;100416.38;5035195;28;20041;-65
2021/10/04 00:26:19;;;;;;;0.20;0.20;;;;;;;0.24;52.26;100412.19;5034894;28;20045;-64
2021/10/04 00:28:45;;;;;;;0.30;0.30;;;;;;;0.22;52.41;100414.19;5034306;28;20041;-64
2021/10/04 00:31:11;;;;;;;0.30;0.30;;;;;;;0.24;52.27;100420.31;5017033;28;20092;-65
2021/10/04 00:33:37;;;;;;;0.30;0.30;;;;;;;0.22;52.46;100416.88;5034736;28;20041;-64
2021/10/04 00:36:03;;;;;;;0.30;0.30;;;;;;;0.23;52.22;100423.13;5034419;28;20041;-64
2021/10/04 00:38:29;;;;;;;0.20;0.20;;;;;;;0.20;52.27;100418.84;5034912;28;20129;-64
2021/10/04 00:40:54;;;;;;;0.20;0.20;;;;;;;0.12;52.37;100421.34;5035197;28;20132;-63
2021/10/04 00:43:21;;;;;;;0.20;0.20;;;;;;;0.09;52.49;100421.56;5034575;28;20053;-64
2021/10/04 00:45:50;;;;;;;0.20;0.20;;;;;;;0.05;52.48;100420.97;5034221;28;20056;-64
2021/10/04 00:48:16;;;;;;;0.20;0.20;;;;;;;0.06;52.34;100422.69;5034857;28;20523;-64
2021/10/04 00:50:43;;;;;;;0.20;0.20;;;;;;;0.08;52.46;100436.06;5034533;28;20044;-64
2021/10/04 00:53:10;;;;;;;0.25;0.25;;;;;;;0.05;52.40;100431.78;5034790;28;20045;-63
2021/10/04 00:55:37;;;;;;;0.22;0.22;;;;;;;0.05;52.42;100433.63;5034409;28;20045;-64
2021/10/04 00:58:04;;;;;;;0.20;0.20;;;;;;;0.05;52.38;100441.72;5034283;28;20511;-62
2021/10/04 01:00:30;;;;;;;0.20;0.20;;;;;;;0.03;52.41;100440.97;5033724;28;20040;-62
2021/10/04 01:02:57;;;;;;;0.20;0.20;;;;;;;0.04;52.33;100435.44;5034042;28;20562;-61
2021/10/04 01:05:23;;;;;;;0.20;0.20;;;;;;;0.10;52.31;100444.91;5034110;28;20045;-62
2021/10/04 01:07:50;;;;;;;0.20;0.20;;;;;;;0.11;52.16;100449.31;5016576;28;20041;-61
2021/10/04 01:10:16;;;;;;;0.20;0.20;;;;;;;0.12;52.24;100443.78;5033995;28;20492;-60
2021/10/04 01:12:45;;;;;;;0.20;0.20;;;;;;;0.08;52.36;100452.28;5033995;28;20092;-61
2021/10/04 01:15:13;;;;;;;0.20;0.20;;;;;;;-0.01;52.51;100443.09;5034274;28;20041;-62
2021/10/04 01:17:40;;;;;;;0.20;0.20;;;;;;;-0.03;52.55;100451.31;5033790;28;20045;-61
2021/10/04 01:20:09;;;;;;;0.20;0.20;;;;;;;0.02;52.46;100450.09;5033536;28;20056;-61
2021/10/04 01:22:35;;;;;;;0.25;0.25;;;;;;;0.07;52.34;100458.66;5033926;28;20046;-61
2021/10/04 01:25:01;;;;;;;0.20;0.20;;;;;;;0.08;52.42;100465.78;5033817;28;20132;-62
2021/10/04 01:27:26;;;;;;;0.20;0.20;;;;;;;0.02;52.25;100464.44;5033745;28;20129;-63
2021/10/04 01:29:52;;;;;;;0.20;0.20;;;;;;;0.01;52.77;100464.56;5033370;28;20110;-62
2021/10/04 01:32:18;;;;;;;0.20;0.20;;;;;;;-0.01;52.61;100464.69;5033759;28;20076;-62
2021/10/04 01:34:43;;;;;;;0.20;0.20;;;;;;;0.01;52.41;100461.88;5033887;28;20041;-60
2021/10/04 01:37:09;;;;;;;0.20;0.20;;;;;;;0.02;52.39;100471.69;5033360;28;20119;-64
2021/10/04 01:39:35;;;;;;;0.28;0.28;;;;;;;0.05;52.25;100471.44;5033456;28;20041;-62
2021/10/04 01:42:01;;;;;;;0.40;0.40;;;;;;;0.04;52.36;100467.03;5033422;28;20468;-62
2021/10/04 01:44:27;;;;;;;0.45;0.35;;;;;;;0.02;52.45;100469.00;5033315;28;20049;-61
2021/10/04 01:46:52;;;;;;;0.20;0.20;;;;;;;-0.04;52.61;100473.91;5032472;28;20049;-60
2021/10/04 01:49:18;;;;;;;0.20;0.20;;;;;;;-0.10;52.71;100469.00;5033442;28;20045;-61
2021/10/04 01:51:44;;;;;;;0.20;0.20;;;;;;;-0.07;52.64;100476.00;5033468;28;20041;-61
2021/10/04 01:54:10;;;;;;;0.20;0.20;;;;;;;-0.04;52.58;100471.19;5043389;28;20048;-62
2021/10/04 01:56:35;;;;;;;0.20;0.20;;;;;;;-0.02;52.68;100481.88;5052917;28;20102;-62
2021/10/04 01:59:02;;;;;;;0.25;0.25;;;;;;;0.02;52.37;100472.53;5052642;28;20045;-61
2021/10/04 02:01:27;;;;;;;0.20;0.20;;;;;;;0.03;52.55;100478.78;5052953;28;20041;-61
2021/10/04 02:03:54;;;;;;;0.20;0.20;;;;;;;0.06;52.64;100481.25;5052888;28;20044;-60
2021/10/04 02:06:20;;;;;;;0.20;0.20;;;;;;;0.05;52.52;100482.25;5052633;28;20524;-61
2021/10/04 02:08:46;;;;;;;0.20;0.20;;;;;;;0.04;52.58;100488.63;5052684;28;20037;-60
2021/10/04 02:11:11;;;;;;;0.20;0.20;;;;;;;0.05;52.25;100484.94;5035025;28;20036;-61
2021/10/04 02:13:37;;;;;;;0.25;0.25;;;;;;;0.07;52.38;100491.06;5052949;28;20045;-62
2021/10/04 02:16:03;;;;;;;0.20;0.20;;;;;;;0.07;52.26;100494.63;5034873;28;20404;-62
2021/10/04 02:18:30;;;;;;;0.20;0.20;;;;;;;0.07;52.38;100499.16;5052489;28;20053;-62
2021/10/04 02:20:56;;;;;;;0.20;0.20;;;;;;;0.07;52.40;100509.97;5052592;28;20259;-63
2021/10/04 02:23:22;;;;;;;0.43;0.43;;;;;;;0.03;52.48;100501.28;5052461;28;20052;-61
2021/10/04 02:25:51;;;;;;;0.30;0.30;;;;;;;0.02;52.58;100502.25;5052250;28;20045;-62
2021/10/04 02:28:18;;;;;;;0.20;0.20;;;;;;;-0.02;52.51;100506.19;5052433;28;20074;-62
2021/10/04 02:30:46;;;;;;;0.20;0.20;;;;;;;-0.04;52.47;100509.00;5051883;28;20049;-64
2021/10/04 02:33:12;;;;;;;0.20;0.20;;;;;;;-0.02;52.45;100520.53;5052228;28;20099;-62
2021/10/04 02:35:38;;;;;;;0.30;0.30;;;;;;;-0.02;52.48;100515.13;5052613;28;20040;-61
2021/10/04 02:38:04;;;;;;;0.20;0.20;;;;;;;-0.04;52.55;100509.00;5052225;28;20091;-63
2021/10/04 02:40:30;;;;;;;0.20;0.20;;;;;;;-0.01;52.36;100516.00;5052137;28;20049;-63
2021/10/04 02:42:56;;;;;;;0.20;0.20;;;;;;;-0.02;52.42;100517.84;5052098;28;20067;-63
2021/10/04 02:45:23;;;;;;;0.20;0.20;;;;;;;0.00;52.49;100525.84;5052446;28;20048;-63
2021/10/04 02:47:51;;;;;;;0.30;0.30;;;;;;;0.03;52.46;100522.88;5052527;28;20045;-63
2021/10/04 02:50:19;;;;;;;0.30;0.30;;;;;;;0.07;52.31;100527.03;5052003;28;20044;-62
2021/10/04 02:52:45;;;;;;;0.30;0.30;;;;;;;0.10;52.18;100534.03;5033968;28;20071;-63
2021/10/04 02:55:11;;;;;;;0.30;0.30;;;;;;;0.13;52.25;100533.78;5049219;28;20076;-61
2021/10/04 02:57:37;;;;;;;0.22;0.22;;;;;;;0.20;52.18;100532.28;5051800;28;20167;-62
2021/10/04 03:00:09;;;;;;;0.20;0.20;;;;;;;0.25;52.16;100529.22;5051029;28;20083;-62
2021/10/04 03:02:35;;;;;;;0.20;0.20;;;;;;;0.27;52.10;100527.25;5038964;28;20041;-63
2021/10/04 03:05:01;;;;;;;0.20;0.20;;;;;;;0.29;52.05;100530.69;5044683;28;20079;-61
2021/10/04 03:07:26;;;;;;;0.57;0.57;;;;;;;0.33;52.01;100533.00;5042026;28;20045;-62
2021/10/04 03:09:52;;;;;;;0.30;0.30;;;;;;;0.38;51.87;100535.31;5041643;28;20120;-62
2021/10/04 03:12:19;;;;;;;0.20;0.20;;;;;;;0.40;51.94;100543.28;5041432;28;20045;-63
2021/10/04 03:14:45;;;;;;;0.20;0.20;;;;;;;0.39;52.07;100538.91;5040225;28;20037;-63
2021/10/04 03:17:10;;;;;;;0.20;0.20;;;;;;;0.33;52.06;100541.09;5039980;28;20091;-63
2021/10/04 03:19:36;;;;;;;0.20;0.20;;;;;;;0.36;52.19;100542.72;5041326;28;20045;-62
2021/10/04 03:22:02;;;;;;;0.20;0.20;;;;;;;0.42;52.05;100544.91;5041011;28;20445;-61
2021/10/04 03:24:28;;;;;;;0.20;0.20;;;;;;;0.52;51.92;100550.41;5040869;28;20045;-64
2021/10/04 03:26:54;;;;;;;0.20;0.20;;;;;;;0.57;51.66;100545.47;5039102;28;20083;-62
2021/10/04 03:29:20;;;;;;;0.38;0.28;;;;;;;0.64;51.70;100554.78;5040602;28;20171;-63
2021/10/04 03:31:45;;;;;;;1.08;0.35;;;;;;;0.64;51.59;100551.25;5040692;28;20381;-61
2021/10/04 03:34:12;;;;;;;0.20;0.20;;;;;;;0.64;51.77;100559.34;5039426;28;20043;-62
2021/10/04 03:36:38;;;;;;;0.50;0.50;;;;;;;0.63;51.75;100560.31;5041066;28;20083;-62
2021/10/04 03:39:06;;;;;;;0.20;0.20;;;;;;;0.66;51.81;100562.75;5039675;28;20382;-63
2021/10/04 03:41:32;;;;;;;0.20;0.20;;;;;;;0.56;51.87;100565.41;5040032;28;20471;-61
2021/10/04 03:43:58;;;;;;;0.20;0.20;;;;;;;0.50;52.02;100565.88;5041259;28;20041;-63
2021/10/04 03:46:23;;;;;;;0.20;0.20;;;;;;;0.55;52.06;100573.63;5040075;28;21132;-63
2021/10/04 03:48:49;;;;;;;0.20;0.20;;;;;;;0.55;51.96;100565.53;5039977;28;20037;-62
2021/10/04 03:51:16;;;;;;;0.20;0.20;;;;;;;0.61;51.47;100565.84;5041111;28;20033;-62
2021/10/04 03:53:41;;;;;;;0.20;0.20;;;;;;;0.62;51.91;100578.41;5043943;28;20036;-64
2021/10/04 03:56:07;;;;;;;0.45;0.38;;;;;;;0.68;51.78;100575.19;5039814;28;20507;-63
2021/10/04 03:58:33;;;;;;;0.20;0.20;;;;;;;0.82;51.48;100581.28;5040702;28;20528;-66
2021/10/04 04:00:59;;;;;;;0.20;0.20;;;;;;;0.86;51.44;100588.16;5039281;28;20056;-64
2021/10/04 04:03:24;;;;;;;3.00;0.75;;;;;;;0.79;51.50;100581.53;5037442;28;20442;-64
2021/10/04 04:05:50;;;;;;;0.20;0.20;;;;;;;0.78;51.56;100582.50;5040283;28;20065;-63
2021/10/04 04:08:16;;;;;;;0.30;0.30;;;;;;;0.85;51.50;100590.00;5039119;28;20037;-63
2021/10/04 04:10:42;;;;;;;0.20;0.20;;;;;;;0.81;51.48;100593.06;5044834;28;20411;-62
2021/10/04 04:13:07;;;;;;;0.30;0.30;;;;;;;0.82;51.51;100595.66;5043549;28;20511;-62
2021/10/04 04:15:33;;;;;;;0.70;0.70;;;;;;;0.86;51.58;100596.28;5044578;28;20040;-63
2021/10/04 04:17:59;;;;;;;0.20;0.20;;;;;;;0.97;51.29;100592.66;5041918;28;20097;-64
2021/10/04 04:20:27;;;;;;;0.20;0.20;;;;;;;1.00;51.35;100590.56;5042372;28;20045;-64
2021/10/04 04:22:53;;;;;;;0.20;0.20;;;;;;;1.05;51.42;100596.44;5043277;28;20497;-63
2021/10/04 04:25:19;;;;;;;0.20;0.20;;;;;;;1.12;51.18;100595.91;5041383;28;20044;-63
2021/10/04 04:27:45;;;;;;;0.20;0.20;;;;;;;1.10;51.14;100596.03;5042770;28;20049;-64
2021/10/04 04:30:13;;;;;;;0.20;0.20;;;;;;;1.21;51.01;100598.69;5042575;28;20045;-63
2021/10/04 04:32:40;;;;;;;0.20;0.20;;;;;;;1.30;50.93;100591.66;5041209;28;20500;-64
2021/10/04 04:35:06;;;;;;;0.20;0.20;;;;;;;1.31;51.01;100596.09;5042139;28;20041;-63
2021/10/04 04:37:33;;;;;;;0.20;0.20;;;;;;;1.32;50.88;100600.47;5043177;28;20048;-62
2021/10/04 04:39:59;;;;;;;0.20;0.20;;;;;;;1.37;50.86;100610.91;5041362;28;20041;-61
2021/10/04 04:42:25;;;;;;;0.20;0.20;;;;;;;1.49;50.73;100607.16;5042420;28;20491;-62
2021/10/04 04:44:52;;;;;;;0.47;0.47;;;;;;;1.55;50.66;100600.38;5042935;28;20089;-62
2021/10/04 04:47:18;;;;;;;0.20;0.20;;;;;;;1.56;50.72;100607.47;5040829;28;20052;-62
2021/10/04 04:49:43;;;;;;;0.20;0.20;;;;;;;1.56;50.69;100613.78;5041642;28;20057;-63
2021/10/04 04:52:09;;;;;;;0.28;0.28;;;;;;;1.58;50.66;100624.47;5042424;28;20052;-63
2021/10/04 04:54:35;;;;;;;0.20;0.20;;;;;;;1.49;50.63;100625.28;5040982;28;20037;-62
2021/10/04 04:57:01;;;;;;;0.20;0.20;;;;;;;1.46;50.81;100618.25;5043055;28;20095;-62
2021/10/04 04:59:28;;;;;;;0.20;0.20;;;;;;;1.46;50.97;100618.25;5038837;28;20081;-62
2021/10/04 05:01:53;;;;;;;0.20;0.20;;;;;;;1.53;50.91;100624.00;5035161;28;20041;-63
2021/10/04 05:04:20;;;;;;;0.20;0.20;;;;;;;1.62;50.62;100623.22;5032308;28;20092;-63
2021/10/04 05:06:46;;;;;;;1.65;0.50;;;;;;;1.69;50.63;100624.41;5033388;28;20056;-64
2021/10/04 05:09:12;;;;;;;0.20;0.20;;;;;;;1.66;50.53;100627.34;5015612;28;20045;-63
2021/10/04 05:11:38;;;;;;;0.20;0.20;;;;;;;1.72;50.72;100634.97;5032981;28;20046;-62
2021/10/04 05:14:03;;;;;;;0.20;0.20;;;;;;;1.85;50.15;100634.75;5032960;28;20072;-63
2021/10/04 05:16:30;;;;;;;0.30;0.30;;;;;;;1.86;50.26;100635.63;5032807;28;20076;-63
2021/10/04 05:18:55;;;;;;;0.20;0.20;;;;;;;1.84;50.49;100637.59;4975159;28;1644081;-62
2021/10/04 05:21:21;;;;;;;0.73;0.73;;;;;;;1.94;50.29;100630.38;5031871;28;20076;-61
2021/10/04 05:23:47;;;;;;;0.20;0.20;;;;;;;2.10;49.83;100630.75;5033229;28;20153;-62
2021/10/04 05:26:13;;;;;;;0.22;0.22;;;;;;;2.17;49.79;100643.78;5032983;28;20038;-64
2021/10/04 05:28:39;;;;;;;0.20;0.20;;;;;;;2.19;49.83;100647.19;5032204;28;20037;-63
2021/10/04 05:31:05;;;;;;;0.20;0.20;;;;;;;2.25;49.84;100649.34;5032825;28;20587;-63
2021/10/04 05:33:31;;;;;;;0.20;0.20;;;;;;;2.28;49.67;100639.13;5032920;28;20037;-63
2021/10/04 05:35:57;;;;;;;0.52;0.28;;;;;;;2.37;49.49;100642.88;5033032;28;20077;-63
2021/10/04 05:38:23;;;;;;;0.20;0.20;;;;;;;2.28;49.86;100652.69;5031317;28;20060;-62
2021/10/04 05:40:49;;;;;;;0.20;0.20;;;;;;;2.20;50.02;100646.22;5033533;28;20515;-62
2021/10/04 05:43:15;;;;;;;0.20;0.20;;;;;;;2.13;50.18;100643.16;5033488;28;20046;-62
2021/10/04 05:45:41;;;;;;;0.20;0.20;;;;;;;2.09;50.23;100653.44;5033506;28;20041;-62
2021/10/04 05:48:07;;;;;;;0.20;0.20;;;;;;;2.22;50.08;100653.22;5033767;28;20488;-62
2021/10/04 05:50:33;;;;;;;0.20;0.20;;;;;;;2.41;49.76;100647.00;5033620;28;20153;-63
2021/10/04 05:52:59;;;;;;;0.25;0.25;;;;;;;2.49;49.53;100650.88;5033840;28;20140;-63
2021/10/04 05:55:25;;;;;;;0.28;0.28;;;;;;;2.49;49.52;100648.16;5033609;28;20041;-63
2021/10/04 05:57:51;;;;;;;0.30;0.30;;;;;;;2.45;49.75;100648.44;5033051;28;20045;-63
2021/10/04 06:00:17;;;;;;;0.20;0.20;;;;;;;2.39;49.90;100651.72;5032549;28;20095;-63
2021/10/04 06:02:43;;;;;;;0.20;0.20;;;;;;;2.34;50.06;100653.09;5033227;28;20037;-63
2021/10/04 06:05:09;;;;;;;0.20;0.20;;;;;;;2.37;49.70;100650.13;5032953;28;20045;-62
2021/10/04 06:07:36;;;;;;;0.20;0.20;;;;;;;2.42;49.66;100643.31;5033326;28;20092;-63
2021/10/04 06:10:05;;;;;;;0.20;0.20;;;;;;;2.51;49.67;100660.59;5033358;28;20049;-63
2021/10/04 06:12:31;;;;;;;0.20;0.20;;;;;;;2.52;49.52;100656.91;5033137;28;20042;-64
2021/10/04 06:14:59;;;;;;;0.38;0.28;;;;;;;2.43;49.80;100647.72;5015313;28;20052;-64
2021/10/04 06:17:26;;;;;;;0.20;0.20;;;;;;;2.27;49.91;100655.53;5033070;28;20037;-63
2021/10/04 06:19:55;;;;;;;0.20;0.20;;;;;;;2.17;50.04;100654.63;5032771;28;20540;-63
2021/10/04 06:22:22;;;;;;;0.82;0.82;;;;;;;2.21;50.00;100653.31;5032915;28;20045;-65
2021/10/04 06:24:48;;;;;;;0.20;0.20;;;;;;;2.17;49.98;100652.75;5032991;28;20041;-64
2021/10/04 06:27:15;;;;;;;0.20;0.20;;;;;;;2.21;49.83;100651.50;5032484;28;20041;-65
2021/10/04 06:29:42;;;;;;;0.30;0.30;;;;;;;2.30;49.71;100660.66;5032269;28;20041;-64
2021/10/04 06:32:08;;;;;;;0.20;0.20;;;;;;;2.39;49.51;100659.84;5032481;28;20415;-64
2021/10/04 06:34:34;;;;;;;0.20;0.20;;;;;;;2.50;49.25;100653.44;5033009;28;20041;-65
2021/10/04 06:37:00;;;;;;;0.20;0.20;;;;;;;2.51;49.09;100657.88;5032690;28;20132;-63
2021/10/04 06:39:26;;;;;;;0.30;0.30;;;;;;;2.57;49.12;100656.50;5033356;28;20041;-63
2021/10/04 06:41:52;;;;;;;0.20;0.20;;;;;;;2.64;48.97;100654.94;5032438;28;20041;-63
2021/10/04 06:44:18;;;;;;;0.20;0.20;;;;;;;2.67;48.95;100654.66;5032490;28;20068;-63
2021/10/04 06:46:44;;;;;;;0.20;0.20;;;;;;;2.89;48.53;100650.00;5032575;28;20041;-62
2021/10/04 06:49:09;;;;;;;0.20;0.20;;;;;;;3.12;48.35;100654.19;5032783;28;20079;-62
2021/10/04 06:51:35;;;;;;;0.20;0.20;;;;;;;3.13;48.16;100650.44;5032752;28;20038;-63
2021/10/04 06:54:02;;;;;;;0.30;0.30;;;;;;;3.14;48.23;100654.88;5032299;28;20041;-62
2021/10/04 06:56:28;;;;;;;0.20;0.20;;;;;;;3.25;48.28;100647.63;5032358;28;20041;-64
2021/10/04 06:58:54;;;;;;;0.20;0.20;;;;;;;3.29;48.15;100651.75;5032221;28;20052;-62
2021/10/04 07:01:19;;;;;;;0.30;0.30;;;;;;;3.24;48.32;100654.03;5032153;28;20076;-62
2021/10/04 07:03:45;;;;;;;0.20;0.20;;;;;;;3.24;48.22;100651.31;5032147;28;20128;-63
2021/10/04 07:06:11;;;;;;;0.20;0.20;;;;;;;3.25;48.20;100650.31;5032270;28;20132;-63
2021/10/04 07:08:36;;;;;;;0.20;0.20;;;;;;;3.33;47.97;100653.19;5032504;28;20500;-62
2021/10/04 07:11:03;;;;;;;0.20;0.20;;;;;;;3.42;48.12;100641.47;5014426;28;20053;-63
2021/10/04 07:13:29;;;;;;;0.20;0.20;;;;;;;3.60;47.89;100654.34;5031931;28;20133;-63
2021/10/04 07:15:55;;;;;;;0.30;0.30;;;;;;;3.70;47.72;100663.31;5032295;28;20136;-64
2021/10/04 07:18:21;;;;;;;0.25;0.25;;;;;;;3.84;47.48;100654.72;5032207;28;20061;-62
2021/10/04 07:20:47;;;;;;;0.20;0.20;;;;;;;4.07;47.14;100662.53;5032135;28;20456;-63
2021/10/04 07:23:13;;;;;;;0.20;0.20;;;;;;;4.24;47.01;100657.34;5014318;28;20054;-62
2021/10/04 07:25:39;;;;;;;0.20;0.20;;;;;;;4.32;46.85;100662.91;5032165;28;20555;-63
2021/10/04 07:28:06;;;;;;;0.20;0.20;;;;;;;4.24;47.10;100674.53;5032151;28;20037;-63
2021/10/04 07:30:34;;;;;;;0.20;0.20;;;;;;;4.02;47.50;100667.56;5031451;28;20072;-63
2021/10/04 07:33:01;;;;;;;0.20;0.20;;;;;;;3.91;47.73;100665.00;5032236;28;20053;-64
2021/10/04 07:35:27;;;;;;;0.20;0.20;;;;;;;4.02;47.71;100665.69;5031949;28;20057;-63
2021/10/04 07:37:53;;;;;;;3.70;0.35;;;;;;;4.07;47.65;100664.41;5031984;28;20073;-63
2021/10/04 07:40:19;;;;;;;0.20;0.20;;;;;;;4.06;47.55;100665.41;5031917;28;20127;-63
2021/10/04 07:42:45;;;;;;;0.30;0.30;;;;;;;3.96;47.70;100659.97;5031833;28;20049;-64
2021/10/04 07:45:12;;;;;;;0.30;0.30;;;;;;;3.91;47.92;100665.00;5034367;28;20045;-63
2021/10/04 07:47:38;;;;;;;0.20;0.20;;;;;;;4.02;47.72;100653.97;5035815;28;20052;-63
2021/10/04 07:50:06;;;;;;;0.20;0.20;;;;;;;4.04;47.69;100662.84;5035823;28;20049;-62
2021/10/04 07:52:32;;;;;;;0.20;0.20;;;;;;;4.12;47.46;100657.53;5017994;28;20041;-63
2021/10/04 07:54:59;;;;;;;0.20;0.20;;;;;;;4.27;47.21;100663.34;5035397;28;20131;-64
2021/10/04 07:57:25;;;;;;;0.20;0.20;;;;;;;4.25;47.22;100670.78;5035473;28;20041;-63
2021/10/04 07:59:51;;;;;;;0.20;0.20;;;;;;;4.04;47.53;100662.84;5035279;28;20043;-63
2021/10/04 08:02:17;;;;;;;0.30;0.30;;;;;;;3.95;47.85;100669.16;5035593;28;20056;-63
2021/10/04 08:04:44;;;;;;;0.30;0.30;;;;;;;3.95;47.78;100669.16;5035696;28;20041;-63
2021/10/04 08:07:10;;;;;;;0.20;0.20;;;;;;;3.99;47.74;100670.56;5035308;28;20042;-62
2021/10/04 08:09:36;;;;;;;0.20;0.20;;;;;;;4.09;47.33;100674.09;5035298;28;20037;-63
2021/10/04 08:12:03;;;;;;;0.20;0.20;;;;;;;4.13;47.27;100671.97;5035584;28;20512;-64
2021/10/04 08:14:29;;;;;;;0.43;0.43;;;;;;;4.11;47.30;100669.41;5035481;28;20530;-63
2021/10/04 08:16:56;;;;;;;0.20;0.20;;;;;;;4.15;47.36;100670.81;5035144;28;20112;-63
2021/10/04 08:19:23;;;;;;;0.40;0.40;;;;;;;4.27;46.92;100667.91;5035217;28;20432;-65
2021/10/04 08:21:50;;;;;;;0.22;0.22;;;;;;;4.48;46.75;100665.84;5035041;28;20100;-63
2021/10/04 08:24:15;;;;;;;0.20;0.20;;;;;;;4.62;46.56;100666.34;5034891;28;20041;-63
2021/10/04 08:26:41;;;;;;;0.22;0.22;;;;;;;4.50;46.71;100673.84;5035027;28;20041;-63
2021/10/04 08:29:07;;;;;;;0.20;0.20;;;;;;;4.30;47.21;100668.50;5034438;28;20046;-62
2021/10/04 08:31:33;;;;;;;0.20;0.20;;;;;;;4.23;47.44;100672.81;5035048;28;20046;-63
2021/10/04 08:34:01;;;;;;;0.20;0.20;;;;;;;4.23;47.31;100666.53;5035172;28;20048;-63
2021/10/04 08:36:28;;;;;;;0.43;0.43;;;;;;;4.29;47.28;100655.88;5034602;28;20041;-62
2021/10/04 08:38:54;;;;;;;0.20;0.20;;;;;;;4.46;46.90;100651.53;5035389;28;20183;-63
2021/10/04 08:41:21;;;;;;;0.20;0.20;;;;;;;4.72;46.35;100651.66;5035044;28;20095;-63
2021/10/04 08:43:52;;;;;;;0.20;0.20;;;;;;;4.77;46.26;100653.09;5034369;28;20064;-63
2021/10/04 08:46:19;;;;;;;0.20;0.20;;;;;;;4.80;46.37;100653.66;5035060;28;20042;-62
2021/10/04 08:48:47;;;;;;;0.20;0.20;;;;;;;4.84;46.29;100648.75;5034418;28;20045;-62
2021/10/04 08:51:13;;;;;;;0.20;0.20;;;;;;;4.91;46.23;100660.75;5034478;28;20068;-62
2021/10/04 08:53:40;;;;;;;0.30;0.30;;;;;;;4.91;46.20;100663.47;5034234;28;20124;-63
2021/10/04 08:56:06;;;;;;;0.20;0.20;;;;;;;4.84;46.34;100660.47;5034261;28;20099;-63
2021/10/04 08:58:32;;;;;;;0.20;0.20;;;;;;;4.64;46.54;100662.47;5034541;28;20052;-63
2021/10/04 09:00:59;;;;;;;0.20;0.20;;;;;;;4.44;46.84;100664.41;5034417;28;20133;-66
2021/10/04 09:03:25;;;;;;;0.17;0.17;;;;;;;4.35;47.17;100660.72;5034381;28;20044;-64
2021/10/04 09:05:58;;;;;;;0.20;0.20;;;;;;;4.51;46.87;100676.41;5034112;28;20041;-63
2021/10/04 09:08:23;;;;;;;0.20;0.20;;;;;;;4.61;46.59;100673.66;5034585;28;20045;-64
2021/10/04 09:10:55;;;;;;;0.20;0.20;;;;;;;4.66;46.42;100670.47;5034322;28;20534;-62
2021/10/04 09:13:22;;;;;;;0.20;0.20;;;;;;;4.63;46.47;100663.47;5034337;28;20072;-62
2021/10/04 09:15:49;;;;;;;0.20;0.20;;;;;;;4.73;46.22;100663.44;5034007;28;20048;-63
2021/10/04 09:18:15;;;;;;;0.20;0.20;;;;;;;4.78;46.27;100663.81;5033349;28;20103;-63
2021/10/04 09:20:54;;;;;;;0.20;0.20;;;;;;;4.96;45.94;100673.91;5033739;28;20076;-61
2021/10/04 09:23:47;;;;;;;0.35;0.35;;;;;;;5.09;45.83;100672.53;5033701;28;20045;-62
2021/10/04 09:26:25;;;;;;;0.20;0.20;;;;;;;5.14;45.70;100685.69;5034403;28;20053;-63
2021/10/04 09:29:11;;;;;;;0.30;0.30;;;;;;;4.93;46.14;100683.22;5033869;28;20454;-65
2021/10/04 09:31:42;;;;;;;0.20;0.20;;;;;;;4.71;46.52;100684.47;5033646;28;20136;-63
2021/10/04 09:34:18;;;;;;;5.05;0.55;;;;;;;4.56;46.72;100693.16;5033752;28;20041;-63
2021/10/04 09:36:46;;;;;;;0.20;0.20;;;;;;;4.45;46.97;100693.34;5033763;28;20191;-64
2021/10/04 09:39:19;;;;;;;0.20;0.20;;;;;;;4.37;46.88;100693.22;5033631;28;20068;-63
2021/10/04 09:42:11;;;;;;;0.20;0.20;;;;;;;4.35;46.81;100689.78;5033933;28;20041;-63
2021/10/04 09:44:56;;;;;;;0.20;0.20;;;;;;;4.41;46.79;100688.34;5020839;28;20107;-66
2021/10/04 09:47:23;;;;;;;0.20;0.20;;;;;;;4.46;46.48;100691.47;5033505;28;20491;-66
2021/10/04 09:50:15;;;;;;;0.40;0.40;;;;;;;4.65;46.18;100683.25;5033906;28;20041;-65
2021/10/04 09:52:46;;;;;;;0.20;0.20;;;;;;;4.86;45.87;100682.13;5033841;28;20506;-64
2021/10/04 09:55:22;;;;;;;0.20;0.20;;;;;;;5.00;45.55;100686.19;5033909;28;20072;-63
2021/10/04 09:58:15;;;;;;;0.20;0.20;;;;;;;4.87;45.83;100681.97;5032853;28;20045;-65
2021/10/04 10:00:55;;;;;;;0.20;0.20;;;;;;;4.81;46.13;100671.69;5036790;28;20041;-64
2021/10/04 10:03:27;;;;;;;0.20;0.20;;;;;;;4.89;45.99;100669.06;5031285;28;20385;-64
2021/10/04 10:05:57;;;;;;;0.20;0.20;;;;;;;5.02;45.74;100674.16;5038397;28;20045;-63
2021/10/04 10:08:25;;;;;;;0.20;0.20;;;;;;;5.12;45.61;100675.94;5033771;28;20096;-64
2021/10/04 10:10:55;;;;;;;0.20;0.20;;;;;;;5.12;45.55;100675.94;5037185;28;20044;-64
2021/10/04 10:13:23;;;;;;;0.20;0.20;;;;;;;4.86;46.09;100672.09;5049551;28;20211;-65
2021/10/04 10:16:29;;;;;;;0.20;0.20;;;;;;;4.68;46.34;100682.06;5049965;28;20051;-64
2021/10/04 10:18:59;;;;;;;0.63;0.63;;;;;;;4.54;46.67;100676.09;5027429;28;20054;-63
2021/10/04 10:21:28;;;;;;;0.20;0.20;;;;;;;4.47;46.70;100682.31;5047650;28;20095;-64
2021/10/04 10:24:04;;;;;;;0.20;0.20;;;;;;;4.38;46.69;100682.19;5049002;28;20045;-65
2021/10/04 10:26:41;;;;;;;0.38;0.20;;;;;;;4.28;46.77;100675.06;5045103;28;20637;-65
2021/10/04 10:29:12;;;;;;;0.20;0.20;;;;;;;4.30;46.71;100678.50;5049158;28;20040;-64
2021/10/04 10:31:50;;;;;;;0.20;0.20;;;;;;;4.37;46.45;100682.34;5038116;28;20448;-64
2021/10/04 10:34:34;;;;;;;0.20;0.20;;;;;;;4.36;46.37;100672.47;5032423;28;20179;-65
2021/10/04 10:37:11;;;;;;;0.40;0.40;;;;;;;4.27;46.45;100676.06;5041599;28;20075;-64
2021/10/04 10:39:41;;;;;;;0.30;0.30;;;;;;;4.21;46.58;100675.66;5049968;28;20048;-65
2021/10/04 10:42:24;;;;;;;0.20;0.20;;;;;;;4.22;46.67;100676.50;5037333;28;20048;-65
2021/10/04 10:44:55;;;;;;;0.20;0.20;;;;;;;4.23;46.45;100682.84;5030242;28;20049;-65
2021/10/04 10:47:33;;;;;;;0.20;0.20;;;;;;;4.06;46.73;100682.56;5039823;28;20048;-64
2021/10/04 10:50:08;;;;;;;0.28;0.28;;;;;;;3.85;47.03;100678.16;5045753;28;20099;-65
2021/10/04 10:52:48;;;;;;;0.20;0.20;;;;;;;3.71;47.25;100684.06;5047698;28;20045;-64
2021/10/04 10:55:19;;;;;;;0.20;0.20;;;;;;;3.68;47.21;100682.50;5045237;28;20075;-64
2021/10/04 10:57:51;;;;;;;0.20;0.20;;;;;;;3.55;47.22;100679.22;5045902;28;20055;-61
2021/10/04 11:00:27;;;;;;;0.20;0.20;;;;;;;3.50;47.30;100687.78;5045675;28;20045;-63
2021/10/04 11:03:05;;;;;;;0.20;0.20;;;;;;;3.45;47.07;100692.78;5048273;28;20044;-62
2021/10/04 11:05:39;;;;;;;0.20;0.20;;;;;;;3.36;47.17;100690.06;5049440;28;20037;-62
2021/10/04 11:08:10;;;;;;;0.32;0.32;;;;;;;3.29;47.24;100685.19;5048323;28;20052;-66
2021/10/04 11:10:56;;;;;;;0.20;0.20;;;;;;;3.32;47.14;100692.22;5045563;28;20044;-63
2021/10/04 11:13:33;;;;;;;0.20;0.20;;;;;;;3.48;46.79;100689.78;5047138;28;20049;-66
2021/10/04 11:16:20;;;;;;;0.20;0.20;;;;;;;3.71;46.40;100694.94;5047538;28;20061;-64
2021/10/04 11:18:47;;;;;;;0.30;0.30;;;;;;;3.82;46.09;100697.47;5034708;28;20064;-63
2021/10/04 11:21:21;;;;;;;0.20;0.20;;;;;;;3.80;46.05;100691.34;5051543;28;20056;-64
2021/10/04 11:23:50;;;;;;;4.97;0.38;;;;;;;3.77;46.16;100688.03;5051413;28;20085;-65
2021/10/04 11:26:20;;;;;;;0.45;0.40;;;;;;;3.74;46.33;100686.50;5053239;28;20037;-63
2021/10/04 11:28:54;;;;;;;0.70;0.55;;;;;;;3.68;46.51;100678.91;5052682;28;20051;-64
2021/10/04 11:31:28;;;;;;;0.30;0.30;;;;;;;3.64;46.52;100683.78;5052916;28;20103;-64
2021/10/04 11:34:34;;;;;;;0.30;0.30;;;;;;;3.68;46.31;100673.47;5052970;28;20048;-64
2021/10/04 11:37:39;;;;;;;0.50;0.50;;;;;;;3.62;46.45;100693.06;5052689;28;20071;-64
2021/10/04 11:40:06;;;;;;;0.50;0.50;;;;;;;3.42;46.82;100684.91;5048931;28;20068;-63